createdAt,value
2023-03-12T00:01:30.387Z,10.98
2023-03-12T00:03:58.114Z,11.48
2023-03-12T00:06:30.496Z,10.82
2023-03-12T00:09:02.350Z,12.32
2023-03-12T00:11:30.620Z,11.18
2023-03-12T00:14:00.288Z,11.80
2023-03-12T00:18:56.902Z,9.73
2023-03-12T00:21:25.813Z,10.48
2023-03-12T00:23:53.922Z,11.35
2023-03-12T00:26:22.940Z,10.63
2023-03-12T00:28:51.124Z,11.80
2023-03-12T00:31:18.810Z,10.82
2023-03-12T00:33:52.893Z,9.70
2023-03-12T00:36:25.200Z,11.23
2023-03-12T00:38:53.740Z,9.48
2023-03-12T00:41:22.403Z,8.98
2023-03-12T00:43:54.737Z,11.23
2023-03-12T00:46:22.849Z,9.68
2023-03-12T00:48:51.000Z,12.30
2023-03-12T00:51:24.611Z,10.30
2023-03-12T00:54:01.661Z,8.75
2023-03-12T00:56:30.844Z,11.15
2023-03-12T00:58:58.789Z,10.00
2023-03-12T01:01:31.033Z,9.45
2023-03-12T01:04:00.061Z,9.65
2023-03-12T01:06:27.929Z,9.73
2023-03-12T01:08:55.725Z,8.95
2023-03-12T01:11:23.301Z,9.57
2023-03-12T01:13:50.441Z,8.65
2023-03-12T01:16:24.045Z,8.02
2023-03-12T01:18:52.585Z,7.25
2023-03-12T01:21:22.780Z,8.73
2023-03-12T01:23:53.298Z,7.85
2023-03-12T01:26:23.885Z,7.80
2023-03-12T01:28:58.648Z,8.40
2023-03-12T01:31:28.886Z,7.55
2023-03-12T01:33:57.137Z,8.27
2023-03-12T01:36:28.201Z,7.90
2023-03-12T01:39:02.306Z,7.57
2023-03-12T01:41:39.621Z,9.25
2023-03-12T01:44:16.859Z,7.90
2023-03-12T01:46:48.176Z,6.53
2023-03-12T01:49:33.287Z,7.03
2023-03-12T01:52:07.677Z,7.25
2023-03-12T01:55:14.582Z,7.22
2023-03-12T01:57:59.659Z,7.05
2023-03-12T02:00:41.580Z,6.78
2023-03-12T02:03:13.783Z,6.80
2023-03-12T02:06:04.543Z,7.45
2023-03-12T02:08:31.904Z,7.45
2023-03-12T02:10:59.524Z,7.05
2023-03-12T02:13:38.067Z,8.18
2023-03-12T02:16:11.488Z,6.35
2023-03-12T02:18:42.502Z,7.00
2023-03-12T02:21:17.284Z,5.80
2023-03-12T02:24:30.664Z,6.78
2023-03-12T02:27:01.128Z,5.53
2023-03-12T02:29:31.453Z,6.97
2023-03-12T02:32:02.833Z,5.93
2023-03-12T02:34:30.909Z,7.32
2023-03-12T02:36:59.251Z,7.45
2023-03-12T02:39:30.910Z,5.40
2023-03-12T02:42:01.188Z,5.78
2023-03-12T02:44:33.696Z,6.13
2023-03-12T02:47:05.054Z,5.47
2023-03-12T02:49:35.223Z,8.13
2023-03-12T02:52:04.851Z,5.45
2023-03-12T02:54:35.932Z,5.53
2023-03-12T02:57:06.286Z,6.60
2023-03-12T02:59:35.092Z,5.55
2023-03-12T03:02:07.276Z,6.00
2023-03-12T03:04:36.024Z,5.97
2023-03-12T03:07:04.465Z,5.32
2023-03-12T03:09:34.390Z,6.97
2023-03-12T03:12:08.704Z,6.40
2023-03-12T03:14:53.265Z,6.35
2023-03-12T03:17:23.743Z,5.85
2023-03-12T03:19:58.844Z,5.63
2023-03-12T03:22:26.323Z,6.50
2023-03-12T03:24:54.258Z,5.93
2023-03-12T03:27:22.591Z,5.53
2023-03-12T03:29:58.327Z,5.45
2023-03-12T03:32:28.956Z,6.20
2023-03-12T03:34:57.193Z,5.22
2023-03-12T03:37:28.405Z,6.15
2023-03-12T03:39:57.323Z,5.70
2023-03-12T03:42:24.729Z,5.35
2023-03-12T03:44:53.907Z,5.45
2023-03-12T03:47:23.563Z,6.28
2023-03-12T03:49:51.336Z,5.50
2023-03-12T03:52:19.783Z,5.82
2023-03-12T03:54:53.708Z,5.55
2023-03-12T03:57:22.408Z,5.80
2023-03-12T03:59:52.141Z,6.20
2023-03-12T04:02:21.643Z,4.90
2023-03-12T04:04:52.562Z,5.28
2023-03-12T04:07:23.049Z,5.20
2023-03-12T04:09:53.464Z,6.60
2023-03-12T04:15:12.998Z,5.70
2023-03-12T04:17:40.870Z,5.97
2023-03-12T04:20:12.177Z,5.15
2023-03-12T04:22:44.276Z,5.80
2023-03-12T04:25:12.220Z,5.90
2023-03-12T04:27:40.923Z,5.25
2023-03-12T04:30:10.608Z,5.00
2023-03-12T04:32:39.821Z,5.07
2023-03-12T04:35:10.144Z,5.57
2023-03-12T04:37:39.019Z,5.00
2023-03-12T04:40:22.123Z,4.53
2023-03-12T04:42:50.918Z,5.20
2023-03-12T04:45:20.777Z,4.43
2023-03-12T04:47:49.311Z,5.60
2023-03-12T04:50:20.724Z,5.13
2023-03-12T04:52:52.443Z,5.50
2023-03-12T04:55:20.735Z,4.63
2023-03-12T04:57:48.406Z,5.10
2023-03-12T05:00:20.032Z,4.95
2023-03-12T05:02:50.027Z,4.38
2023-03-12T05:05:17.793Z,4.18
2023-03-12T05:07:46.576Z,4.35
2023-03-12T05:10:14.597Z,4.35
2023-03-12T05:12:43.390Z,5.38
2023-03-12T05:15:12.263Z,4.93
2023-03-12T05:17:41.101Z,4.97
2023-03-12T05:20:10.482Z,4.00
2023-03-12T05:22:38.503Z,7.30
2023-03-12T05:25:06.669Z,4.97
2023-03-12T05:27:35.444Z,5.32
2023-03-12T05:30:05.877Z,4.07
2023-03-12T05:32:34.910Z,5.03
2023-03-12T05:35:03.793Z,4.07
2023-03-12T05:37:32.411Z,4.97
2023-03-12T05:40:00.895Z,4.38
2023-03-12T05:42:31.253Z,5.60
2023-03-12T05:45:01.406Z,6.18
2023-03-12T05:47:32.125Z,4.32
2023-03-12T05:50:05.144Z,4.40
2023-03-12T05:52:36.476Z,5.70
2023-03-12T05:55:05.905Z,5.30
2023-03-12T05:57:33.608Z,3.83
2023-03-12T06:00:05.226Z,4.57
2023-03-12T06:02:44.188Z,4.45
2023-03-12T06:07:42.445Z,4.47
2023-03-12T06:10:14.517Z,4.03
2023-03-12T06:12:50.142Z,4.38
2023-03-12T06:15:22.072Z,3.58
2023-03-12T06:17:58.937Z,3.85
2023-03-12T06:20:27.748Z,3.50
2023-03-12T06:22:56.367Z,3.70
2023-03-12T06:25:24.652Z,4.05
2023-03-12T06:27:55.044Z,3.70
2023-03-12T06:32:50.437Z,4.47
2023-03-12T06:35:20.044Z,4.00
2023-03-12T06:37:47.216Z,4.20
2023-03-12T06:40:14.643Z,4.13
2023-03-12T06:42:43.595Z,3.90
2023-03-12T06:45:11.599Z,4.82
2023-03-12T06:47:38.901Z,4.35
2023-03-12T06:50:10.104Z,4.50
2023-03-12T06:52:41.094Z,4.80
2023-03-12T06:55:08.402Z,3.97
2023-03-12T06:57:36.736Z,5.53
2023-03-12T07:00:06.214Z,4.68
2023-03-12T07:02:34.752Z,4.13
2023-03-12T07:05:02.470Z,3.70
2023-03-12T07:07:30.645Z,4.35
2023-03-12T07:10:00.366Z,4.25
2023-03-12T07:12:27.946Z,4.53
2023-03-12T07:14:55.694Z,3.58
2023-03-12T07:17:27.298Z,3.88
2023-03-12T07:19:55.016Z,4.22
2023-03-12T07:22:28.708Z,4.47
2023-03-12T07:24:58.796Z,4.18
2023-03-12T07:27:26.429Z,4.15
2023-03-12T07:29:56.216Z,3.95
2023-03-12T07:32:23.965Z,3.95
2023-03-12T07:34:54.066Z,5.07
2023-03-12T07:37:21.845Z,3.97
2023-03-12T07:39:53.809Z,4.07
2023-03-12T07:42:27.650Z,4.07
2023-03-12T07:45:00.143Z,4.95
2023-03-12T07:50:05.268Z,4.35
2023-03-12T07:52:33.848Z,3.58
2023-03-12T07:55:02.984Z,4.10
2023-03-12T07:57:31.638Z,3.55
2023-03-12T07:59:59.019Z,3.22
2023-03-12T08:02:27.777Z,3.70
2023-03-12T08:04:56.522Z,4.38
2023-03-12T08:07:26.096Z,4.47
2023-03-12T08:09:54.203Z,3.60
2023-03-12T08:12:23.710Z,3.85
2023-03-12T08:14:52.830Z,2.92
2023-03-12T08:17:20.660Z,3.50
2023-03-12T08:19:48.598Z,3.00
2023-03-12T08:22:20.822Z,3.65
2023-03-12T08:24:48.765Z,4.05
2023-03-12T08:27:18.665Z,3.70
2023-03-12T08:29:48.696Z,3.63
2023-03-12T08:32:20.786Z,4.40
2023-03-12T08:34:49.345Z,3.50
2023-03-12T08:37:18.169Z,4.32
2023-03-12T08:39:45.920Z,3.90
2023-03-12T08:42:15.152Z,3.50
2023-03-12T08:44:45.446Z,3.35
2023-03-12T08:47:13.154Z,3.72
2023-03-12T08:49:43.693Z,3.95
2023-03-12T08:52:14.968Z,3.42
2023-03-12T08:54:50.907Z,3.80
2023-03-12T08:57:21.877Z,6.90
2023-03-12T08:59:53.611Z,4.90
2023-03-12T09:02:24.229Z,6.22
2023-03-12T09:04:53.393Z,5.28
2023-03-12T09:07:23.255Z,14.25
2023-03-12T09:09:55.056Z,10.77
2023-03-12T09:12:23.337Z,9.43
2023-03-12T09:15:03.405Z,9.77
2023-03-12T09:20:06.562Z,8.20
2023-03-12T09:22:37.563Z,8.05
2023-03-12T09:25:09.269Z,5.10
2023-03-12T09:27:41.686Z,5.45
2023-03-12T09:30:12.142Z,5.60
2023-03-12T09:32:46.045Z,5.18
2023-03-12T09:35:16.195Z,5.93
2023-03-12T09:37:44.261Z,7.45
2023-03-12T09:40:20.250Z,7.78
2023-03-12T09:42:52.489Z,5.55
2023-03-12T14:35:32.393Z,11.27
